createdAt,value
2023-01-29T00:00:10.402Z,10.00
2023-01-29T00:03:01.381Z,9.60
2023-01-29T00:05:29.536Z,9.50
2023-01-29T00:07:58.032Z,9.10
2023-01-29T00:10:26.638Z,9.50
2023-01-29T00:12:55.381Z,11.20
2023-01-29T00:15:23.613Z,9.80
2023-01-29T00:17:51.728Z,9.70
2023-01-29T00:20:20.079Z,9.80
2023-01-29T00:22:48.297Z,9.70
2023-01-29T00:25:16.455Z,9.70
2023-01-29T00:27:45.017Z,9.50
2023-01-29T00:30:13.737Z,9.50
2023-01-29T00:32:42.636Z,9.80
2023-01-29T00:35:11.602Z,9.70
2023-01-29T00:37:39.683Z,9.30
2023-01-29T00:40:10.065Z,10.40
2023-01-29T00:42:56.805Z,11.30
2023-01-29T00:45:24.980Z,10.50
2023-01-29T00:47:53.058Z,12.00
2023-01-29T00:50:21.126Z,10.30
2023-01-29T00:52:51.967Z,9.50
2023-01-29T00:55:20.135Z,9.80
2023-01-29T00:57:48.803Z,9.80
2023-01-29T01:00:19.655Z,9.70
2023-01-29T01:03:06.051Z,9.90
2023-01-29T01:05:35.038Z,9.40
2023-01-29T01:08:03.118Z,10.00
2023-01-29T01:10:33.550Z,10.50
2023-01-29T01:13:04.485Z,9.50
2023-01-29T01:15:40.325Z,9.70
2023-01-29T01:18:08.521Z,10.40
2023-01-29T01:20:37.392Z,8.90
2023-01-29T01:23:05.467Z,9.50
2023-01-29T01:25:34.056Z,9.10
2023-01-29T01:28:02.440Z,10.00
2023-01-29T01:30:30.800Z,9.10
2023-01-29T01:33:00.112Z,8.90
2023-01-29T01:35:28.469Z,9.50
2023-01-29T01:37:56.445Z,9.30
2023-01-29T01:40:26.087Z,10.10
2023-01-29T01:42:58.541Z,9.90
2023-01-29T01:45:30.751Z,9.80
2023-01-29T01:48:05.319Z,11.20
2023-01-29T01:50:46.838Z,12.00
2023-01-29T01:53:22.149Z,12.50
2023-01-29T01:55:59.223Z,11.90
2023-01-29T01:58:36.616Z,11.60
2023-01-29T02:01:07.528Z,11.40
2023-01-29T02:04:13.917Z,9.80
2023-01-29T02:07:02.169Z,10.10
2023-01-29T02:09:40.022Z,9.60
2023-01-29T02:12:11.819Z,10.60
2023-01-29T02:14:41.762Z,11.50
2023-01-29T02:17:16.166Z,12.60
2023-01-29T02:20:06.700Z,11.50
2023-01-29T02:22:56.538Z,11.80
2023-01-29T02:26:04.435Z,10.50
2023-01-29T02:28:41.926Z,10.00
2023-01-29T02:31:23.192Z,10.80
2023-01-29T02:34:06.120Z,9.60
2023-01-29T02:36:46.180Z,10.50
2023-01-29T02:39:37.077Z,10.00
2023-01-29T02:42:15.765Z,10.40
2023-01-29T02:45:12.435Z,10.10
2023-01-29T02:47:47.572Z,9.90
2023-01-29T02:50:15.800Z,10.20
2023-01-29T02:53:13.677Z,11.00
2023-01-29T02:55:56.875Z,9.20
2023-01-29T02:58:45.394Z,9.20
2023-01-29T03:01:23.612Z,9.50
2023-01-29T03:03:56.380Z,9.50
2023-01-29T03:06:38.583Z,8.50
2023-01-29T03:09:16.802Z,9.10
2023-01-29T03:11:54.777Z,8.90
2023-01-29T03:14:54.408Z,8.60
2023-01-29T03:17:26.977Z,8.30
2023-01-29T03:19:54.980Z,8.90
2023-01-29T03:22:24.773Z,9.40
2023-01-29T03:25:21.432Z,7.70
2023-01-29T03:28:17.967Z,9.30
2023-01-29T03:31:13.180Z,8.30
2023-01-29T03:34:16.697Z,8.70
2023-01-29T03:36:56.239Z,9.00
2023-01-29T03:39:28.871Z,7.90
2023-01-29T03:42:20.382Z,8.70
2023-01-29T03:45:14.629Z,8.50
2023-01-29T03:48:20.166Z,8.70
2023-01-29T03:51:17.571Z,9.10
2023-01-29T03:54:09.990Z,9.30
2023-01-29T03:56:58.160Z,8.80
2023-01-29T04:00:04.725Z,10.50
2023-01-29T04:02:55.841Z,9.00
2023-01-29T04:05:30.745Z,8.50
2023-01-29T04:08:16.616Z,7.90
2023-01-29T04:10:48.208Z,8.50
2023-01-29T04:13:18.002Z,8.60
2023-01-29T04:15:55.009Z,8.80
2023-01-29T04:18:33.722Z,8.90
2023-01-29T04:21:07.713Z,8.20
2023-01-29T04:23:35.800Z,7.70
2023-01-29T04:26:25.992Z,7.80
2023-01-29T04:29:16.482Z,8.30
2023-01-29T04:32:01.143Z,8.10
2023-01-29T04:34:47.634Z,7.20
2023-01-29T04:37:21.656Z,7.40
2023-01-29T04:40:03.833Z,7.40
2023-01-29T04:42:39.617Z,8.30
2023-01-29T04:45:18.030Z,7.80
2023-01-29T04:47:52.545Z,7.60
2023-01-29T04:50:40.938Z,8.10
2023-01-29T04:53:24.020Z,9.20
2023-01-29T04:56:17.683Z,8.20
2023-01-29T04:58:55.293Z,7.80
2023-01-29T05:01:29.914Z,6.70
2023-01-29T05:04:00.316Z,7.90
2023-01-29T05:06:31.585Z,8.20
2023-01-29T05:09:02.201Z,8.70
2023-01-29T05:11:33.517Z,7.70
2023-01-29T05:14:04.084Z,7.50
2023-01-29T05:16:49.763Z,8.10
2023-01-29T05:19:17.963Z,9.60
2023-01-29T05:21:49.017Z,7.80
2023-01-29T05:24:23.297Z,8.30
2023-01-29T05:27:12.066Z,7.90
2023-01-29T05:29:46.272Z,8.20
2023-01-29T05:32:15.942Z,7.70
2023-01-29T05:34:43.940Z,9.10
2023-01-29T05:37:12.013Z,7.90
2023-01-29T05:39:40.098Z,8.10
2023-01-29T05:42:08.091Z,8.80
2023-01-29T05:44:36.121Z,8.50
2023-01-29T05:47:04.393Z,7.30
2023-01-29T05:49:32.466Z,8.10
2023-01-29T05:52:00.469Z,8.40
2023-01-29T05:54:28.504Z,7.60
2023-01-29T05:56:56.569Z,7.30
2023-01-29T05:59:24.541Z,8.10
2023-01-29T06:01:52.809Z,8.20
2023-01-29T06:04:20.991Z,7.50
2023-01-29T06:06:49.004Z,7.50
2023-01-29T06:09:17.028Z,7.20
2023-01-29T06:11:45.100Z,7.20
2023-01-29T06:14:13.167Z,8.00
2023-01-29T06:16:41.445Z,7.20
2023-01-29T06:19:09.518Z,7.80
2023-01-29T06:21:37.482Z,7.10
2023-01-29T06:24:06.135Z,7.60
2023-01-29T06:26:34.357Z,6.90
2023-01-29T06:29:02.410Z,7.20
2023-01-29T06:31:38.669Z,6.50
2023-01-29T06:34:08.635Z,7.10
2023-01-29T06:36:37.072Z,7.10
2023-01-29T06:39:05.348Z,7.00
2023-01-29T06:41:33.549Z,7.10
2023-01-29T06:44:02.004Z,7.10
2023-01-29T06:46:30.383Z,7.60
2023-01-29T06:49:00.584Z,7.20
2023-01-29T06:51:28.970Z,7.20
2023-01-29T06:53:57.048Z,7.50
2023-01-29T06:56:25.326Z,7.40
2023-01-29T06:58:53.393Z,7.30
2023-01-29T07:01:35.046Z,7.40
2023-01-29T07:04:04.482Z,7.30
2023-01-29T07:06:33.583Z,7.50
2023-01-29T07:09:01.957Z,7.60
2023-01-29T07:11:31.105Z,7.10
2023-01-29T07:13:59.128Z,7.80
2023-01-29T07:16:27.346Z,7.70
2023-01-29T07:18:55.874Z,8.10
2023-01-29T07:21:24.250Z,8.60
2023-01-29T07:23:52.324Z,8.10
2023-01-29T07:26:20.599Z,8.50
2023-01-29T07:28:48.570Z,8.40
2023-01-29T07:31:16.729Z,8.30
2023-01-29T07:33:45.138Z,8.60
2023-01-29T07:36:14.410Z,8.10
2023-01-29T07:38:42.641Z,8.00
2023-01-29T07:41:11.847Z,8.10
2023-01-29T07:43:39.964Z,7.80
2023-01-29T07:46:08.374Z,7.70
2023-01-29T07:48:36.505Z,8.00
2023-01-29T07:51:04.886Z,7.60
2023-01-29T07:53:33.163Z,7.70
2023-01-29T07:56:01.245Z,8.00
2023-01-29T07:58:29.200Z,8.50
2023-01-29T08:00:57.193Z,8.90
2023-01-29T08:03:25.244Z,8.20
2023-01-29T08:05:53.255Z,9.20
2023-01-29T08:08:21.292Z,7.50
2023-01-29T08:10:49.450Z,7.80
2023-01-29T08:13:17.422Z,7.50
2023-01-29T08:15:46.239Z,7.70
2023-01-29T08:18:15.099Z,7.60
2023-01-29T08:20:43.176Z,7.40
2023-01-29T08:23:16.660Z,7.40
2023-01-29T08:25:44.898Z,9.10
2023-01-29T08:28:12.998Z,7.00
2023-01-29T08:30:41.622Z,7.40
2023-01-29T08:33:10.179Z,7.50
2023-01-29T08:35:38.250Z,7.60
2023-01-29T08:38:06.397Z,7.50
2023-01-29T08:40:35.167Z,7.60
2023-01-29T08:43:09.351Z,7.30
2023-01-29T08:45:42.825Z,8.00
2023-01-29T08:48:11.419Z,7.70
2023-01-29T08:50:39.592Z,7.70
2023-01-29T08:53:09.081Z,8.40
2023-01-29T08:55:39.189Z,8.10
2023-01-29T08:58:12.148Z,8.50
2023-01-29T09:00:40.246Z,8.10
2023-01-29T09:03:08.318Z,8.10
2023-01-29T09:05:38.543Z,8.30
2023-01-29T09:08:07.740Z,9.00
2023-01-29T09:10:36.817Z,8.60
2023-01-29T09:13:05.412Z,8.60
2023-01-29T09:15:33.483Z,9.60
2023-01-29T09:18:06.227Z,9.30
2023-01-29T09:20:34.502Z,9.10
2023-01-29T09:23:07.121Z,9.80
2023-01-29T09:25:35.460Z,9.10
2023-01-29T09:28:03.973Z,9.50
2023-01-29T09:30:33.594Z,9.50
2023-01-29T09:33:01.755Z,9.50
2023-01-29T09:35:29.831Z,9.20
2023-01-29T09:37:58.103Z,10.30
2023-01-29T09:40:35.728Z,10.10
2023-01-29T09:43:14.572Z,9.50
2023-01-29T09:45:53.050Z,10.10
2023-01-29T09:48:23.661Z,10.00
2023-01-29T09:50:55.495Z,9.50
2023-01-29T09:53:26.469Z,10.30
2023-01-29T09:56:10.192Z,10.10
2023-01-29T09:58:42.273Z,10.80
2023-01-29T10:01:51.311Z,10.60
2023-01-29T10:04:43.793Z,11.20
2023-01-29T10:07:20.922Z,10.50
2023-01-29T10:10:12.341Z,10.20
2023-01-29T10:13:26.280Z,10.40
2023-01-29T10:16:12.479Z,10.30
2023-01-29T10:19:15.978Z,10.40
2023-01-29T10:21:52.448Z,10.90
2023-01-29T10:24:49.899Z,10.40
2023-01-29T10:27:19.370Z,10.70
2023-01-29T10:29:51.142Z,10.90
2023-01-29T10:32:23.717Z,10.70
2023-01-29T10:35:00.898Z,11.80
2023-01-29T10:37:41.900Z,12.00
2023-01-29T10:40:18.899Z,11.50
2023-01-29T10:42:58.718Z,12.20
2023-01-29T10:45:46.044Z,11.80
2023-01-29T10:48:40.973Z,11.80
2023-01-29T10:51:38.504Z,12.00
2023-01-29T10:54:48.159Z,11.90
2023-01-29T10:57:53.043Z,12.00
2023-01-29T11:00:26.252Z,12.30
2023-01-29T11:02:54.534Z,12.20
2023-01-29T11:05:39.001Z,12.90
2023-01-29T11:08:18.106Z,12.80
2023-01-29T11:11:09.839Z,11.90
2023-01-29T11:14:07.222Z,12.90
2023-01-29T11:16:43.824Z,13.00
2023-01-29T11:19:11.959Z,12.40
2023-01-29T11:22:01.362Z,12.80
2023-01-29T11:24:30.016Z,13.80
2023-01-29T11:27:00.233Z,13.50
2023-01-29T11:29:34.144Z,13.00
2023-01-29T11:32:06.814Z,13.10
2023-01-29T11:34:34.992Z,14.40
2023-01-29T11:37:15.164Z,13.60
2023-01-29T11:39:47.357Z,14.40
2023-01-29T11:42:21.017Z,14.10
2023-01-29T11:44:49.803Z,14.20
2023-01-29T11:47:24.077Z,14.60
2023-01-29T11:50:00.887Z,13.70
2023-01-29T11:52:38.611Z,14.00
2023-01-29T11:55:15.681Z,14.40
2023-01-29T11:57:48.661Z,14.30
2023-01-29T12:00:31.985Z,15.00
2023-01-29T12:03:11.124Z,15.00
2023-01-29T12:05:41.168Z,15.30
2023-01-29T12:08:18.235Z,15.30
2023-01-29T12:10:46.386Z,15.00
2023-01-29T12:13:15.870Z,15.30
2023-01-29T12:15:44.271Z,15.40
2023-01-29T12:18:27.594Z,15.30
2023-01-29T12:21:12.355Z,15.10
2023-01-29T12:24:18.118Z,16.10
2023-01-29T12:27:05.948Z,15.60
2023-01-29T12:29:47.332Z,15.70
2023-01-29T12:32:46.832Z,14.50
2023-01-29T12:35:26.647Z,15.70
2023-01-29T12:38:01.212Z,15.60
2023-01-29T12:40:43.200Z,15.10
2023-01-29T12:43:30.215Z,16.20
2023-01-29T12:46:01.357Z,15.90
2023-01-29T12:48:34.664Z,15.00
2023-01-29T12:51:14.479Z,15.30
2023-01-29T12:53:51.246Z,14.40
2023-01-29T12:56:38.497Z,13.10
2023-01-29T12:59:39.230Z,13.90
2023-01-29T13:02:22.763Z,13.70
2023-01-29T13:05:01.276Z,12.60
2023-01-29T13:07:36.276Z,12.90
2023-01-29T13:10:12.287Z,13.20
2023-01-29T13:12:51.904Z,12.80
2023-01-29T13:15:23.361Z,12.30
2023-01-29T13:17:56.743Z,12.10
2023-01-29T13:20:35.442Z,11.90
2023-01-29T13:23:21.169Z,12.60
2023-01-29T13:25:53.845Z,12.70
2023-01-29T13:28:26.000Z,13.10
2023-01-29T13:31:17.928Z,13.70
2023-01-29T13:34:16.003Z,13.50
2023-01-29T13:36:46.859Z,13.10
2023-01-29T13:39:31.013Z,12.90
2023-01-29T13:42:01.526Z,13.20
2023-01-29T13:44:40.403Z,12.80
2023-01-29T13:47:12.499Z,12.30
2023-01-29T13:49:45.773Z,12.30
2023-01-29T13:52:26.358Z,12.60
2023-01-29T13:54:58.728Z,12.90
2023-01-29T13:57:35.400Z,11.80
2023-01-29T14:00:05.488Z,12.10
2023-01-29T14:02:33.851Z,11.80
2023-01-29T14:05:30.050Z,12.50
2023-01-29T14:08:02.098Z,11.90
2023-01-29T14:10:34.975Z,12.00
2023-01-29T14:13:18.324Z,12.20
2023-01-29T14:16:12.482Z,12.10
2023-01-29T14:18:49.563Z,12.30
2023-01-29T14:21:17.651Z,12.80
2023-01-29T14:23:52.771Z,12.10
2023-01-29T14:26:34.930Z,11.80
2023-01-29T14:29:14.475Z,11.40
2023-01-29T14:32:13.727Z,12.20
2023-01-29T14:34:50.831Z,11.70
2023-01-29T14:37:36.957Z,11.70
2023-01-29T14:40:20.318Z,11.90
2023-01-29T14:42:57.507Z,11.20
2023-01-29T14:45:30.384Z,11.60
2023-01-29T14:48:39.747Z,11.70
2023-01-29T14:51:15.291Z,11.90
2023-01-29T14:54:11.704Z,12.60
2023-01-29T14:56:59.629Z,12.00
2023-01-29T14:59:38.054Z,11.90
2023-01-29T15:02:19.725Z,11.80
2023-01-29T15:04:56.212Z,11.20
2023-01-29T15:07:42.484Z,11.00
2023-01-29T15:10:25.423Z,12.10
2023-01-29T15:13:03.376Z,11.00
2023-01-29T15:15:34.628Z,11.10
2023-01-29T15:18:12.267Z,10.30
2023-01-29T15:20:42.238Z,10.30
2023-01-29T15:23:30.497Z,10.00
2023-01-29T15:26:01.932Z,10.20
2023-01-29T15:28:32.307Z,10.00
2023-01-29T15:31:04.494Z,10.40
2023-01-29T15:33:34.073Z,10.50
2023-01-29T15:36:07.993Z,9.80
2023-01-29T15:38:36.639Z,9.70
2023-01-29T15:41:16.414Z,9.60
2023-01-29T15:43:47.244Z,10.10
2023-01-29T15:46:27.532Z,11.20
2023-01-29T15:48:57.696Z,11.00
2023-01-29T15:51:28.161Z,11.70
2023-01-29T15:54:00.008Z,11.30
2023-01-29T15:56:31.969Z,11.40
2023-01-29T15:59:07.331Z,10.90
2023-01-29T16:01:37.464Z,10.50
2023-01-29T16:04:06.325Z,11.10
2023-01-29T16:06:38.179Z,10.50
2023-01-29T16:09:07.524Z,10.10
2023-01-29T16:11:36.572Z,9.70
2023-01-29T16:14:06.447Z,10.20
2023-01-29T16:16:35.010Z,9.70
2023-01-29T16:19:24.027Z,10.10
2023-01-29T16:21:55.482Z,10.20
2023-01-29T16:24:25.111Z,9.60
2023-01-29T16:27:04.393Z,9.60
2023-01-29T16:29:34.248Z,9.50
2023-01-29T16:32:03.787Z,9.40
2023-01-29T16:34:34.639Z,9.40
2023-01-29T16:37:06.837Z,9.50
2023-01-29T16:39:39.836Z,9.10
2023-01-29T16:42:17.630Z,9.30
2023-01-29T16:45:04.502Z,9.50
2023-01-29T16:47:34.382Z,9.20
2023-01-29T16:50:36.199Z,8.60
2023-01-29T16:53:32.560Z,9.60
2023-01-29T16:56:04.467Z,9.70
2023-01-29T16:58:32.574Z,9.10
2023-01-29T17:01:08.516Z,8.80
2023-01-29T17:03:38.427Z,9.60
2023-01-29T17:06:19.008Z,10.20
2023-01-29T17:08:47.457Z,10.00
2023-01-29T17:11:30.610Z,10.00
2023-01-29T17:13:59.733Z,9.60
2023-01-29T17:16:32.080Z,8.60
2023-01-29T17:19:01.370Z,9.30
2023-01-29T17:21:30.548Z,9.30
2023-01-29T17:23:58.548Z,9.60
2023-01-29T17:26:26.662Z,9.50
2023-01-29T17:28:55.497Z,9.60
2023-01-29T17:31:23.624Z,11.00
2023-01-29T17:33:51.885Z,11.00
2023-01-29T17:36:19.931Z,10.60
2023-01-29T17:38:47.988Z,10.20
2023-01-29T17:41:25.939Z,11.20
2023-01-29T17:43:54.071Z,10.90
2023-01-29T17:46:22.947Z,11.60
2023-01-29T17:48:51.120Z,12.00
2023-01-29T17:51:19.455Z,11.80
2023-01-29T17:53:47.790Z,12.40
2023-01-29T17:56:30.346Z,12.70
2023-01-29T17:58:58.465Z,12.90
2023-01-29T18:01:26.748Z,13.60
2023-01-29T18:03:55.072Z,13.60
2023-01-29T18:06:28.980Z,14.30
2023-01-29T18:08:57.637Z,14.20
2023-01-29T18:11:26.100Z,14.10
2023-01-29T18:13:55.280Z,14.90
2023-01-29T18:16:24.570Z,15.70
2023-01-29T18:18:53.398Z,15.80
2023-01-29T18:21:21.431Z,15.90
2023-01-29T18:23:49.399Z,16.20
2023-01-29T18:26:18.010Z,17.20
2023-01-29T18:28:46.163Z,16.90
2023-01-29T18:31:14.596Z,17.60
2023-01-29T18:33:42.927Z,18.50
2023-01-29T18:36:11.088Z,17.60
2023-01-29T18:38:39.873Z,18.10
2023-01-29T18:41:12.774Z,18.40
2023-01-29T18:43:42.053Z,18.90
2023-01-29T18:46:10.698Z,17.50
2023-01-29T18:48:39.940Z,17.20
2023-01-29T18:51:09.849Z,17.80
2023-01-29T18:53:38.128Z,17.90
2023-01-29T18:56:07.088Z,17.90
2023-01-29T18:58:36.678Z,17.90
2023-01-29T19:01:09.952Z,18.80
2023-01-29T19:03:40.742Z,17.60
2023-01-29T19:06:11.723Z,17.40
2023-01-29T19:08:41.013Z,18.80
2023-01-29T19:11:09.265Z,17.00
2023-01-29T19:13:38.178Z,18.60
2023-01-29T19:16:09.120Z,18.40
2023-01-29T19:18:37.269Z,18.10
2023-01-29T19:21:10.731Z,18.30
2023-01-29T19:23:39.557Z,18.90
2023-01-29T19:26:08.027Z,17.40
2023-01-29T19:28:36.113Z,17.90
2023-01-29T19:31:04.347Z,17.40
2023-01-29T19:33:32.445Z,17.90
2023-01-29T19:36:00.952Z,17.40
2023-01-29T19:38:29.007Z,17.50
2023-01-29T19:40:59.733Z,18.10
2023-01-29T19:43:31.922Z,18.30
2023-01-29T19:46:01.627Z,19.50
2023-01-29T19:48:30.004Z,17.80
2023-01-29T19:51:04.416Z,17.50
2023-01-29T19:53:32.882Z,19.00
2023-01-29T19:56:03.381Z,18.40
2023-01-29T19:58:32.324Z,18.50
2023-01-29T20:01:03.840Z,19.80
2023-01-29T20:03:31.921Z,19.00
2023-01-29T20:06:05.268Z,19.10
2023-01-29T20:08:33.881Z,19.00
2023-01-29T20:11:02.377Z,18.60
2023-01-29T20:13:30.451Z,20.00
2023-01-29T20:16:03.011Z,20.90
2023-01-29T20:18:32.121Z,19.00
2023-01-29T20:21:05.619Z,20.30
2023-01-29T20:23:38.087Z,18.70
2023-01-29T20:26:09.210Z,19.60
2023-01-29T20:28:37.611Z,18.80
2023-01-29T20:31:07.901Z,20.40
2023-01-29T20:33:39.055Z,20.20
2023-01-29T20:36:10.151Z,19.70
2023-01-29T20:38:38.510Z,21.10
2023-01-29T20:41:09.730Z,21.20
2023-01-29T20:43:38.121Z,20.40
2023-01-29T20:46:06.946Z,21.00
2023-01-29T20:48:35.608Z,21.80
2023-01-29T20:51:13.863Z,22.20
2023-01-29T20:53:46.292Z,21.90
2023-01-29T20:56:16.865Z,21.00
2023-01-29T20:58:46.915Z,21.40
2023-01-29T21:01:17.896Z,20.60
2023-01-29T21:03:47.049Z,21.20
2023-01-29T21:06:15.931Z,20.70
2023-01-29T21:08:44.032Z,20.50
2023-01-29T21:11:12.180Z,21.50
2023-01-29T21:13:40.359Z,21.50
2023-01-29T21:16:10.985Z,20.50
2023-01-29T21:18:39.986Z,21.00
2023-01-29T21:21:08.057Z,21.80
2023-01-29T21:23:36.146Z,22.00
2023-01-29T21:26:05.869Z,22.30
2023-01-29T21:28:34.854Z,21.40
2023-01-29T21:31:08.872Z,23.00
2023-01-29T21:33:37.782Z,22.50
2023-01-29T21:36:07.556Z,22.90
2023-01-29T21:38:36.009Z,21.60
2023-01-29T21:41:07.220Z,21.80
2023-01-29T21:43:36.051Z,22.00
2023-01-29T21:46:11.751Z,22.90
2023-01-29T21:48:40.523Z,24.40
2023-01-29T21:51:08.654Z,22.10
2023-01-29T21:53:36.932Z,23.00
2023-01-29T21:56:06.311Z,22.00
2023-01-29T21:58:34.297Z,21.60
2023-01-29T22:01:36.758Z,21.90
2023-01-29T22:03:50.415Z,21.50
2023-01-29T22:06:18.479Z,21.60
2023-01-29T22:08:49.221Z,21.70
2023-01-29T22:11:17.979Z,21.30
2023-01-29T22:13:45.968Z,21.40
2023-01-29T22:16:13.970Z,21.80
2023-01-29T22:18:42.002Z,22.60
2023-01-29T22:21:09.955Z,21.70
2023-01-29T22:23:38.272Z,21.90
2023-01-29T22:26:07.716Z,22.00
2023-01-29T22:28:35.725Z,20.70
2023-01-29T22:31:05.549Z,20.80
2023-01-29T22:33:33.705Z,20.80
2023-01-29T22:36:02.285Z,20.70
2023-01-29T22:38:31.177Z,20.80
2023-01-29T22:41:00.690Z,20.90
2023-01-29T22:43:29.484Z,20.80
2023-01-29T22:45:57.744Z,21.30
2023-01-29T22:48:25.921Z,20.60
2023-01-29T22:51:24.706Z,20.30
2023-01-29T22:53:55.334Z,21.10
2023-01-29T22:56:26.044Z,21.30
2023-01-29T22:58:56.640Z,21.80
2023-01-29T23:01:27.763Z,21.60
2023-01-29T23:03:55.811Z,21.70
2023-01-29T23:06:24.394Z,21.90
2023-01-29T23:08:52.465Z,22.20
2023-01-29T23:11:23.636Z,22.60
2023-01-29T23:13:53.655Z,22.70
2023-01-29T23:16:26.161Z,22.60
2023-01-29T23:18:56.348Z,23.00
2023-01-29T23:21:25.417Z,23.20
2023-01-29T23:23:55.560Z,22.60
2023-01-29T23:26:42.581Z,23.70
2023-01-29T23:29:10.821Z,23.00
2023-01-29T23:31:39.341Z,23.30
2023-01-29T23:34:07.475Z,23.00
2023-01-29T23:36:35.645Z,22.70
2023-01-29T23:39:04.247Z,22.50
2023-01-29T23:41:32.428Z,24.20
2023-01-29T23:44:00.475Z,23.40
2023-01-29T23:46:28.576Z,21.90
2023-01-29T23:48:56.652Z,22.30
2023-01-29T23:51:24.796Z,22.50
2023-01-29T23:53:53.381Z,21.60
2023-01-29T23:56:21.644Z,21.80
2023-01-29T23:58:56.599Z,21.90
